sensor_id;sensor_type;location;lat;lon;timestamp;P1;durP1;ratioP1;P2;durP2;ratioP2
65691;SDS011;52411;52.716;6.696;2023-11-21T00:01:57;48.83;;;17.98;;
65691;SDS011;52411;52.716;6.696;2023-11-21T00:04:23;60.13;;;20.83;;
65691;SDS011;52411;52.716;6.696;2023-11-21T00:06:49;58.28;;;19.55;;
65691;SDS011;52411;52.716;6.696;2023-11-21T00:09:15;59.00;;;20.23;;
65691;SDS011;52411;52.716;6.696;2023-11-21T00:11:42;72.95;;;22.10;;
65691;SDS011;52411;52.716;6.696;2023-11-21T00:14:09;57.00;;;19.38;;
65691;SDS011;52411;52.716;6.696;2023-11-21T00:16:36;64.18;;;20.80;;
65691;SDS011;52411;52.716;6.696;2023-11-21T00:19:01;67.35;;;22.63;;
65691;SDS011;52411;52.716;6.696;2023-11-21T00:21:27;60.25;;;21.10;;
65691;SDS011;52411;52.716;6.696;2023-11-21T00:23:52;68.60;;;22.30;;
65691;SDS011;52411;52.716;6.696;2023-11-21T00:26:18;76.10;;;20.92;;
65691;SDS011;52411;52.716;6.696;2023-11-21T00:28:43;76.90;;;23.15;;
65691;SDS011;52411;52.716;6.696;2023-11-21T00:31:10;82.43;;;23.83;;
65691;SDS011;52411;52.716;6.696;2023-11-21T00:33:36;89.47;;;22.98;;
65691;SDS011;52411;52.716;6.696;2023-11-21T00:36:01;70.10;;;21.90;;
65691;SDS011;52411;52.716;6.696;2023-11-21T00:38:27;70.95;;;21.67;;
65691;SDS011;52411;52.716;6.696;2023-11-21T00:40:53;81.65;;;24.33;;
65691;SDS011;52411;52.716;6.696;2023-11-21T00:43:22;71.07;;;21.75;;
65691;SDS011;52411;52.716;6.696;2023-11-21T00:45:48;81.70;;;24.92;;
65691;SDS011;52411;52.716;6.696;2023-11-21T00:48:16;68.47;;;21.73;;
65691;SDS011;52411;52.716;6.696;2023-11-21T00:50:43;79.45;;;23.90;;
65691;SDS011;52411;52.716;6.696;2023-11-21T00:53:09;60.88;;;21.23;;
65691;SDS011;52411;52.716;6.696;2023-11-21T00:55:34;64.93;;;21.42;;
65691;SDS011;52411;52.716;6.696;2023-11-21T00:58:00;61.03;;;21.23;;
65691;SDS011;52411;52.716;6.696;2023-11-21T01:00:28;56.58;;;20.33;;
65691;SDS011;52411;52.716;6.696;2023-11-21T01:02:54;63.88;;;21.08;;
65691;SDS011;52411;52.716;6.696;2023-11-21T01:05:20;64.25;;;20.13;;
65691;SDS011;52411;52.716;6.696;2023-11-21T01:07:46;61.17;;;20.40;;
65691;SDS011;52411;52.716;6.696;2023-11-21T01:10:11;59.38;;;20.90;;
65691;SDS011;52411;52.716;6.696;2023-11-21T01:12:37;61.25;;;21.05;;
65691;SDS011;52411;52.716;6.696;2023-11-21T01:15:04;67.07;;;20.58;;
65691;SDS011;52411;52.716;6.696;2023-11-21T01:17:32;71.45;;;20.55;;
65691;SDS011;52411;52.716;6.696;2023-11-21T01:19:59;64.63;;;22.25;;
65691;SDS011;52411;52.716;6.696;2023-11-21T01:22:25;59.42;;;20.27;;
65691;SDS011;52411;52.716;6.696;2023-11-21T01:24:52;57.95;;;20.88;;
65691;SDS011;52411;52.716;6.696;2023-11-21T01:27:18;55.92;;;20.95;;
65691;SDS011;52411;52.716;6.696;2023-11-21T01:29:44;63.63;;;21.85;;
65691;SDS011;52411;52.716;6.696;2023-11-21T01:32:09;60.53;;;21.40;;
65691;SDS011;52411;52.716;6.696;2023-11-21T01:34:35;65.18;;;20.92;;
65691;SDS011;52411;52.716;6.696;2023-11-21T01:37:01;66.80;;;20.98;;
65691;SDS011;52411;52.716;6.696;2023-11-21T01:39:29;56.72;;;20.40;;
65691;SDS011;52411;52.716;6.696;2023-11-21T01:41:55;52.65;;;20.42;;
65691;SDS011;52411;52.716;6.696;2023-11-21T01:44:23;62.80;;;21.40;;
65691;SDS011;52411;52.716;6.696;2023-11-21T01:46:49;63.75;;;21.35;;
65691;SDS011;52411;52.716;6.696;2023-11-21T01:49:16;69.13;;;21.10;;
65691;SDS011;52411;52.716;6.696;2023-11-21T01:51:43;65.80;;;21.02;;
65691;SDS011;52411;52.716;6.696;2023-11-21T01:54:12;67.82;;;21.33;;
65691;SDS011;52411;52.716;6.696;2023-11-21T01:56:37;52.85;;;19.58;;
65691;SDS011;52411;52.716;6.696;2023-11-21T01:59:04;53.95;;;19.45;;
65691;SDS011;52411;52.716;6.696;2023-11-21T02:01:30;57.78;;;20.30;;
65691;SDS011;52411;52.716;6.696;2023-11-21T02:03:56;59.03;;;19.45;;
65691;SDS011;52411;52.716;6.696;2023-11-21T02:06:21;59.17;;;19.20;;
65691;SDS011;52411;52.716;6.696;2023-11-21T02:08:47;55.70;;;20.45;;
65691;SDS011;52411;52.716;6.696;2023-11-21T02:11:14;60.70;;;19.65;;
65691;SDS011;52411;52.716;6.696;2023-11-21T02:13:39;63.58;;;20.00;;
65691;SDS011;52411;52.716;6.696;2023-11-21T02:16:12;54.05;;;19.38;;
65691;SDS011;52411;52.716;6.696;2023-11-21T02:18:39;63.13;;;19.45;;
65691;SDS011;52411;52.716;6.696;2023-11-21T02:21:04;59.60;;;19.77;;
65691;SDS011;52411;52.716;6.696;2023-11-21T02:23:30;58.13;;;18.38;;
65691;SDS011;52411;52.716;6.696;2023-11-21T02:25:56;58.67;;;18.70;;
65691;SDS011;52411;52.716;6.696;2023-11-21T02:28:21;51.90;;;17.83;;
65691;SDS011;52411;52.716;6.696;2023-11-21T02:30:51;51.88;;;19.45;;
65691;SDS011;52411;52.716;6.696;2023-11-21T02:33:21;56.20;;;18.55;;
65691;SDS011;52411;52.716;6.696;2023-11-21T02:35:46;48.25;;;18.13;;
65691;SDS011;52411;52.716;6.696;2023-11-21T02:38:12;51.53;;;17.85;;
65691;SDS011;52411;52.716;6.696;2023-11-21T02:40:38;62.63;;;20.00;;
65691;SDS011;52411;52.716;6.696;2023-11-21T02:43:04;48.65;;;18.40;;
65691;SDS011;52411;52.716;6.696;2023-11-21T02:45:30;60.10;;;19.30;;
65691;SDS011;52411;52.716;6.696;2023-11-21T02:47:56;51.25;;;18.83;;
65691;SDS011;52411;52.716;6.696;2023-11-21T02:50:22;56.83;;;18.77;;
65691;SDS011;52411;52.716;6.696;2023-11-21T02:52:48;49.25;;;18.65;;
65691;SDS011;52411;52.716;6.696;2023-11-21T02:55:14;58.30;;;18.75;;
65691;SDS011;52411;52.716;6.696;2023-11-21T02:57:40;51.65;;;18.67;;
65691;SDS011;52411;52.716;6.696;2023-11-21T03:00:06;52.55;;;18.30;;
65691;SDS011;52411;52.716;6.696;2023-11-21T03:02:41;52.83;;;18.20;;
65691;SDS011;52411;52.716;6.696;2023-11-21T03:05:07;53.45;;;17.35;;
65691;SDS011;52411;52.716;6.696;2023-11-21T03:07:39;52.50;;;18.95;;
65691;SDS011;52411;52.716;6.696;2023-11-21T03:10:05;58.78;;;19.55;;
65691;SDS011;52411;52.716;6.696;2023-11-21T03:12:34;49.88;;;18.15;;
65691;SDS011;52411;52.716;6.696;2023-11-21T03:14:59;55.78;;;17.90;;
65691;SDS011;52411;52.716;6.696;2023-11-21T03:17:26;60.85;;;17.63;;
65691;SDS011;52411;52.716;6.696;2023-11-21T03:19:52;54.47;;;18.15;;
65691;SDS011;52411;52.716;6.696;2023-11-21T03:22:18;48.22;;;17.98;;
65691;SDS011;52411;52.716;6.696;2023-11-21T03:24:44;56.72;;;18.02;;
65691;SDS011;52411;52.716;6.696;2023-11-21T03:27:09;55.13;;;18.23;;
65691;SDS011;52411;52.716;6.696;2023-11-21T03:29:35;64.70;;;17.52;;
65691;SDS011;52411;52.716;6.696;2023-11-21T03:32:00;50.60;;;17.42;;
65691;SDS011;52411;52.716;6.696;2023-11-21T03:34:27;53.42;;;18.67;;
65691;SDS011;52411;52.716;6.696;2023-11-21T03:36:53;54.25;;;18.08;;
65691;SDS011;52411;52.716;6.696;2023-11-21T03:39:19;74.63;;;18.73;;
65691;SDS011;52411;52.716;6.696;2023-11-21T03:41:45;53.40;;;17.30;;
65691;SDS011;52411;52.716;6.696;2023-11-21T03:44:11;56.40;;;17.85;;
65691;SDS011;52411;52.716;6.696;2023-11-21T03:46:38;61.10;;;18.00;;
65691;SDS011;52411;52.716;6.696;2023-11-21T03:49:03;56.30;;;17.40;;
65691;SDS011;52411;52.716;6.696;2023-11-21T03:51:29;52.45;;;16.75;;
65691;SDS011;52411;52.716;6.696;2023-11-21T03:53:54;55.33;;;17.50;;
65691;SDS011;52411;52.716;6.696;2023-11-21T03:56:20;54.63;;;18.42;;
65691;SDS011;52411;52.716;6.696;2023-11-21T03:58:47;54.63;;;17.52;;
65691;SDS011;52411;52.716;6.696;2023-11-21T04:01:23;59.85;;;18.50;;
65691;SDS011;52411;52.716;6.696;2023-11-21T04:03:50;64.10;;;18.00;;
65691;SDS011;52411;52.716;6.696;2023-11-21T04:06:16;57.80;;;17.15;;
65691;SDS011;52411;52.716;6.696;2023-11-21T04:08:43;53.95;;;17.85;;
65691;SDS011;52411;52.716;6.696;2023-11-21T04:11:09;61.95;;;18.38;;
65691;SDS011;52411;52.716;6.696;2023-11-21T04:13:39;55.75;;;17.30;;
65691;SDS011;52411;52.716;6.696;2023-11-21T04:16:08;56.58;;;17.92;;
65691;SDS011;52411;52.716;6.696;2023-11-21T04:18:35;63.30;;;17.60;;
65691;SDS011;52411;52.716;6.696;2023-11-21T04:21:02;54.05;;;16.23;;
65691;SDS011;52411;52.716;6.696;2023-11-21T04:23:28;65.68;;;17.23;;
65691;SDS011;52411;52.716;6.696;2023-11-21T04:25:54;44.72;;;16.90;;
65691;SDS011;52411;52.716;6.696;2023-11-21T04:28:22;56.03;;;16.17;;
65691;SDS011;52411;52.716;6.696;2023-11-21T04:30:48;58.33;;;16.73;;
65691;SDS011;52411;52.716;6.696;2023-11-21T04:33:13;55.10;;;17.02;;
65691;SDS011;52411;52.716;6.696;2023-11-21T04:35:39;57.10;;;17.23;;
65691;SDS011;52411;52.716;6.696;2023-11-21T04:38:04;61.08;;;17.10;;
65691;SDS011;52411;52.716;6.696;2023-11-21T04:40:30;64.80;;;18.45;;
65691;SDS011;52411;52.716;6.696;2023-11-21T04:42:55;58.10;;;17.38;;
65691;SDS011;52411;52.716;6.696;2023-11-21T04:45:22;68.60;;;19.17;;
65691;SDS011;52411;52.716;6.696;2023-11-21T04:47:47;63.13;;;17.95;;
65691;SDS011;52411;52.716;6.696;2023-11-21T04:50:13;55.42;;;16.67;;
65691;SDS011;52411;52.716;6.696;2023-11-21T04:52:39;75.35;;;19.13;;
65691;SDS011;52411;52.716;6.696;2023-11-21T04:55:04;59.33;;;17.88;;
65691;SDS011;52411;52.716;6.696;2023-11-21T04:57:31;66.13;;;19.38;;
65691;SDS011;52411;52.716;6.696;2023-11-21T04:59:57;71.35;;;17.85;;
65691;SDS011;52411;52.716;6.696;2023-11-21T05:02:23;57.63;;;16.75;;
65691;SDS011;52411;52.716;6.696;2023-11-21T05:04:48;57.42;;;17.38;;
65691;SDS011;52411;52.716;6.696;2023-11-21T05:07:14;50.20;;;17.23;;
65691;SDS011;52411;52.716;6.696;2023-11-21T05:09:44;56.33;;;17.02;;
65691;SDS011;52411;52.716;6.696;2023-11-21T05:12:11;52.40;;;17.08;;
65691;SDS011;52411;52.716;6.696;2023-11-21T05:14:37;58.70;;;17.10;;
65691;SDS011;52411;52.716;6.696;2023-11-21T05:17:03;51.22;;;16.70;;
65691;SDS011;52411;52.716;6.696;2023-11-21T05:19:29;52.72;;;17.48;;
65691;SDS011;52411;52.716;6.696;2023-11-21T05:21:54;67.78;;;16.02;;
65691;SDS011;52411;52.716;6.696;2023-11-21T05:24:20;42.65;;;14.52;;
65691;SDS011;52411;52.716;6.696;2023-11-21T05:26:46;41.42;;;14.60;;
65691;SDS011;52411;52.716;6.696;2023-11-21T05:29:11;44.38;;;15.95;;
65691;SDS011;52411;52.716;6.696;2023-11-21T05:31:37;46.53;;;15.90;;
65691;SDS011;52411;52.716;6.696;2023-11-21T05:34:03;58.10;;;16.80;;
65691;SDS011;52411;52.716;6.696;2023-11-21T05:36:30;57.83;;;17.50;;
65691;SDS011;52411;52.716;6.696;2023-11-21T05:38:55;60.17;;;17.42;;
65691;SDS011;52411;52.716;6.696;2023-11-21T05:41:21;58.67;;;16.80;;
65691;SDS011;52411;52.716;6.696;2023-11-21T05:43:47;64.05;;;17.50;;
65691;SDS011;52411;52.716;6.696;2023-11-21T05:46:12;70.60;;;18.45;;
65691;SDS011;52411;52.716;6.696;2023-11-21T05:48:38;50.78;;;17.05;;
65691;SDS011;52411;52.716;6.696;2023-11-21T05:51:07;55.83;;;17.05;;
65691;SDS011;52411;52.716;6.696;2023-11-21T05:53:33;73.35;;;17.65;;
65691;SDS011;52411;52.716;6.696;2023-11-21T05:55:59;64.25;;;16.75;;
65691;SDS011;52411;52.716;6.696;2023-11-21T05:58:25;66.05;;;17.63;;
65691;SDS011;52411;52.716;6.696;2023-11-21T06:00:50;46.55;;;16.17;;
65691;SDS011;52411;52.716;6.696;2023-11-21T06:03:16;63.38;;;17.40;;
65691;SDS011;52411;52.716;6.696;2023-11-21T06:05:42;61.55;;;17.85;;
65691;SDS011;52411;52.716;6.696;2023-11-21T06:08:08;52.20;;;17.05;;
65691;SDS011;52411;52.716;6.696;2023-11-21T06:10:35;59.88;;;17.30;;
65691;SDS011;52411;52.716;6.696;2023-11-21T06:13:01;58.47;;;17.70;;
65691;SDS011;52411;52.716;6.696;2023-11-21T06:15:28;61.63;;;18.90;;
65691;SDS011;52411;52.716;6.696;2023-11-21T06:17:54;64.57;;;17.83;;
65691;SDS011;52411;52.716;6.696;2023-11-21T06:20:20;62.22;;;19.40;;
65691;SDS011;52411;52.716;6.696;2023-11-21T06:22:48;65.90;;;18.50;;
65691;SDS011;52411;52.716;6.696;2023-11-21T06:25:15;68.05;;;19.73;;
65691;SDS011;52411;52.716;6.696;2023-11-21T06:27:47;74.75;;;19.20;;
65691;SDS011;52411;52.716;6.696;2023-11-21T06:30:14;77.65;;;19.25;;
65691;SDS011;52411;52.716;6.696;2023-11-21T06:32:40;66.50;;;19.38;;
65691;SDS011;52411;52.716;6.696;2023-11-21T06:35:07;60.65;;;17.60;;
65691;SDS011;52411;52.716;6.696;2023-11-21T06:37:36;66.00;;;18.35;;
65691;SDS011;52411;52.716;6.696;2023-11-21T06:40:02;72.20;;;17.35;;
65691;SDS011;52411;52.716;6.696;2023-11-21T06:42:29;59.28;;;17.00;;
65691;SDS011;52411;52.716;6.696;2023-11-21T06:44:55;80.20;;;19.13;;
65691;SDS011;52411;52.716;6.696;2023-11-21T06:47:22;76.22;;;18.38;;
65691;SDS011;52411;52.716;6.696;2023-11-21T06:49:51;85.07;;;21.25;;
65691;SDS011;52411;52.716;6.696;2023-11-21T06:52:17;67.43;;;19.63;;
65691;SDS011;52411;52.716;6.696;2023-11-21T06:54:44;67.05;;;20.35;;
65691;SDS011;52411;52.716;6.696;2023-11-21T06:57:10;82.57;;;21.42;;
65691;SDS011;52411;52.716;6.696;2023-11-21T06:59:36;73.82;;;21.80;;
65691;SDS011;52411;52.716;6.696;2023-11-21T07:02:02;76.25;;;21.13;;
65691;SDS011;52411;52.716;6.696;2023-11-21T07:04:29;70.13;;;20.60;;
65691;SDS011;52411;52.716;6.696;2023-11-21T07:06:55;64.60;;;19.63;;
65691;SDS011;52411;52.716;6.696;2023-11-21T07:09:21;68.43;;;19.20;;
65691;SDS011;52411;52.716;6.696;2023-11-21T07:11:50;59.15;;;18.48;;
65691;SDS011;52411;52.716;6.696;2023-11-21T07:14:15;56.17;;;19.25;;
65691;SDS011;52411;52.716;6.696;2023-11-21T07:16:42;51.13;;;18.02;;
65691;SDS011;52411;52.716;6.696;2023-11-21T07:19:07;46.70;;;17.13;;
65691;SDS011;52411;52.716;6.696;2023-11-21T07:21:36;52.17;;;17.60;;
65691;SDS011;52411;52.716;6.696;2023-11-21T07:24:02;48.78;;;17.67;;
65691;SDS011;52411;52.716;6.696;2023-11-21T07:26:29;47.28;;;17.63;;
65691;SDS011;52411;52.716;6.696;2023-11-21T07:28:55;46.10;;;17.25;;
65691;SDS011;52411;52.716;6.696;2023-11-21T07:31:21;41.20;;;16.77;;
65691;SDS011;52411;52.716;6.696;2023-11-21T07:33:50;49.65;;;17.88;;
65691;SDS011;52411;52.716;6.696;2023-11-21T07:36:16;49.17;;;18.23;;
65691;SDS011;52411;52.716;6.696;2023-11-21T07:38:51;49.90;;;18.02;;
65691;SDS011;52411;52.716;6.696;2023-11-21T07:41:17;52.97;;;18.15;;
65691;SDS011;52411;52.716;6.696;2023-11-21T07:43:43;44.58;;;17.75;;
65691;SDS011;52411;52.716;6.696;2023-11-21T07:46:10;52.97;;;17.70;;
65691;SDS011;52411;52.716;6.696;2023-11-21T07:48:37;46.67;;;18.25;;
65691;SDS011;52411;52.716;6.696;2023-11-21T07:51:11;47.75;;;18.73;;
65691;SDS011;52411;52.716;6.696;2023-11-21T07:53:38;42.67;;;16.52;;
65691;SDS011;52411;52.716;6.696;2023-11-21T07:56:04;42.05;;;15.93;;
65691;SDS011;52411;52.716;6.696;2023-11-21T07:58:31;41.42;;;16.13;;
65691;SDS011;52411;52.716;6.696;2023-11-21T08:00:58;43.10;;;16.20;;
65691;SDS011;52411;52.716;6.696;2023-11-21T08:03:24;39.58;;;15.13;;
65691;SDS011;52411;52.716;6.696;2023-11-21T08:05:51;40.97;;;15.50;;
65691;SDS011;52411;52.716;6.696;2023-11-21T08:08:17;40.40;;;15.30;;
65691;SDS011;52411;52.716;6.696;2023-11-21T08:10:43;40.42;;;16.25;;
65691;SDS011;52411;52.716;6.696;2023-11-21T08:13:21;40.92;;;15.38;;
65691;SDS011;52411;52.716;6.696;2023-11-21T08:15:54;43.67;;;16.10;;
65691;SDS011;52411;52.716;6.696;2023-11-21T08:18:21;35.83;;;15.30;;
65691;SDS011;52411;52.716;6.696;2023-11-21T08:20:47;36.55;;;15.48;;
65691;SDS011;52411;52.716;6.696;2023-11-21T08:23:14;36.75;;;15.98;;
65691;SDS011;52411;52.716;6.696;2023-11-21T08:25:42;41.55;;;15.68;;
65691;SDS011;52411;52.716;6.696;2023-11-21T08:28:08;40.15;;;14.82;;
65691;SDS011;52411;52.716;6.696;2023-11-21T08:30:33;36.15;;;15.23;;
65691;SDS011;52411;52.716;6.696;2023-11-21T08:33:00;38.53;;;14.85;;
65691;SDS011;52411;52.716;6.696;2023-11-21T08:35:25;41.80;;;16.05;;
65691;SDS011;52411;52.716;6.696;2023-11-21T08:37:51;38.53;;;14.82;;
65691;SDS011;52411;52.716;6.696;2023-11-21T08:40:18;36.50;;;14.70;;
65691;SDS011;52411;52.716;6.696;2023-11-21T08:42:44;34.40;;;15.15;;
65691;SDS011;52411;52.716;6.696;2023-11-21T08:45:10;36.65;;;15.27;;
65691;SDS011;52411;52.716;6.696;2023-11-21T08:47:37;34.50;;;15.25;;
65691;SDS011;52411;52.716;6.696;2023-11-21T08:50:05;41.53;;;15.07;;
65691;SDS011;52411;52.716;6.696;2023-11-21T08:52:32;33.20;;;14.57;;
65691;SDS011;52411;52.716;6.696;2023-11-21T08:55:02;35.50;;;14.40;;
65691;SDS011;52411;52.716;6.696;2023-11-21T08:57:33;38.53;;;14.18;;
65691;SDS011;52411;52.716;6.696;2023-11-21T08:59:59;33.08;;;13.60;;
65691;SDS011;52411;52.716;6.696;2023-11-21T09:02:27;32.92;;;13.57;;
65691;SDS011;52411;52.716;6.696;2023-11-21T09:04:53;33.88;;;13.50;;
65691;SDS011;52411;52.716;6.696;2023-11-21T09:07:18;33.15;;;12.98;;
65691;SDS011;52411;52.716;6.696;2023-11-21T09:09:45;29.30;;;12.50;;
65691;SDS011;52411;52.716;6.696;2023-11-21T09:12:12;31.25;;;11.98;;
65691;SDS011;52411;52.716;6.696;2023-11-21T09:14:38;30.27;;;12.63;;
65691;SDS011;52411;52.716;6.696;2023-11-21T09:17:04;28.00;;;11.77;;
65691;SDS011;52411;52.716;6.696;2023-11-21T09:22:01;27.48;;;10.00;;
65691;SDS011;52411;52.716;6.696;2023-11-21T09:24:27;21.33;;;8.98;;
65691;SDS011;52411;52.716;6.696;2023-11-21T09:26:53;27.17;;;9.95;;
65691;SDS011;52411;52.716;6.696;2023-11-21T09:29:18;35.17;;;12.25;;
65691;SDS011;52411;52.716;6.696;2023-11-21T09:31:44;34.70;;;11.85;;
65691;SDS011;52411;52.716;6.696;2023-11-21T09:34:10;34.00;;;11.68;;
65691;SDS011;52411;52.716;6.696;2023-11-21T09:36:36;40.08;;;12.68;;
65691;SDS011;52411;52.716;6.696;2023-11-21T09:39:04;42.13;;;12.43;;
65691;SDS011;52411;52.716;6.696;2023-11-21T09:44:13;35.60;;;12.82;;
65691;SDS011;52411;52.716;6.696;2023-11-21T09:49:10;33.53;;;12.27;;
65691;SDS011;52411;52.716;6.696;2023-11-21T09:51:44;42.65;;;13.35;;
65691;SDS011;52411;52.716;6.696;2023-11-21T09:54:12;36.25;;;13.43;;
65691;SDS011;52411;52.716;6.696;2023-11-21T09:56:41;44.03;;;14.35;;
65691;SDS011;52411;52.716;6.696;2023-11-21T09:59:07;42.03;;;14.70;;
65691;SDS011;52411;52.716;6.696;2023-11-21T10:01:38;38.42;;;14.48;;
65691;SDS011;52411;52.716;6.696;2023-11-21T10:04:05;43.80;;;15.18;;
65691;SDS011;52411;52.716;6.696;2023-11-21T10:06:40;37.58;;;14.43;;
65691;SDS011;52411;52.716;6.696;2023-11-21T10:09:07;43.88;;;15.05;;
65691;SDS011;52411;52.716;6.696;2023-11-21T10:11:40;46.78;;;15.18;;
65691;SDS011;52411;52.716;6.696;2023-11-21T10:14:07;39.00;;;14.20;;
65691;SDS011;52411;52.716;6.696;2023-11-21T10:16:37;37.38;;;14.85;;
65691;SDS011;52411;52.716;6.696;2023-11-21T10:19:04;44.15;;;15.32;;
65691;SDS011;52411;52.716;6.696;2023-11-21T10:21:32;39.60;;;14.93;;
65691;SDS011;52411;52.716;6.696;2023-11-21T10:23:58;40.95;;;15.05;;
65691;SDS011;52411;52.716;6.696;2023-11-21T10:26:24;41.88;;;15.30;;
65691;SDS011;52411;52.716;6.696;2023-11-21T10:28:57;38.13;;;14.55;;
65691;SDS011;52411;52.716;6.696;2023-11-21T10:31:25;41.05;;;16.38;;
65691;SDS011;52411;52.716;6.696;2023-11-21T10:33:52;39.28;;;15.40;;
65691;SDS011;52411;52.716;6.696;2023-11-21T10:36:26;38.05;;;15.35;;
65691;SDS011;52411;52.716;6.696;2023-11-21T10:38:53;35.03;;;15.00;;
65691;SDS011;52411;52.716;6.696;2023-11-21T10:41:20;34.80;;;14.73;;
65691;SDS011;52411;52.716;6.696;2023-11-21T10:43:45;32.63;;;13.43;;
65691;SDS011;52411;52.716;6.696;2023-11-21T10:46:11;35.38;;;14.50;;
65691;SDS011;52411;52.716;6.696;2023-11-21T10:48:40;32.60;;;14.32;;
65691;SDS011;52411;52.716;6.696;2023-11-21T10:51:09;33.72;;;14.18;;
65691;SDS011;52411;52.716;6.696;2023-11-21T10:53:40;33.65;;;14.60;;
65691;SDS011;52411;52.716;6.696;2023-11-21T10:56:10;32.53;;;13.73;;
65691;SDS011;52411;52.716;6.696;2023-11-21T10:58:43;29.75;;;13.15;;
65691;SDS011;52411;52.716;6.696;2023-11-21T11:01:08;30.27;;;14.48;;
65691;SDS011;52411;52.716;6.696;2023-11-21T11:03:37;29.15;;;13.07;;
65691;SDS011;52411;52.716;6.696;2023-11-21T11:06:04;29.95;;;14.02;;
65691;SDS011;52411;52.716;6.696;2023-11-21T11:08:32;28.40;;;14.13;;
65691;SDS011;52411;52.716;6.696;2023-11-21T11:11:00;30.27;;;12.77;;
65691;SDS011;52411;52.716;6.696;2023-11-21T11:13:25;24.08;;;12.70;;
65691;SDS011;52411;52.716;6.696;2023-11-21T11:15:51;26.85;;;12.82;;
65691;SDS011;52411;52.716;6.696;2023-11-21T11:18:26;25.27;;;13.70;;
65691;SDS011;52411;52.716;6.696;2023-11-21T11:20:57;22.75;;;11.85;;
65691;SDS011;52411;52.716;6.696;2023-11-21T11:29:08;20.35;;;10.85;;
65691;SDS011;52411;52.716;6.696;2023-11-21T11:35:14;17.35;;;10.02;;
65691;SDS011;52411;52.716;6.696;2023-11-21T11:37:47;18.15;;;8.98;;
65691;SDS011;52411;52.716;6.696;2023-11-21T11:40:13;14.23;;;8.70;;
65691;SDS011;52411;52.716;6.696;2023-11-21T11:42:40;14.55;;;8.63;;
65691;SDS011;52411;52.716;6.696;2023-11-21T11:45:32;14.70;;;8.98;;
65691;SDS011;52411;52.716;6.696;2023-11-21T11:48:02;15.43;;;8.73;;
65691;SDS011;52411;52.716;6.696;2023-11-21T11:50:28;14.02;;;7.90;;
65691;SDS011;52411;52.716;6.696;2023-11-21T11:52:55;13.45;;;8.38;;
65691;SDS011;52411;52.716;6.696;2023-11-21T11:55:36;13.10;;;8.38;;
65691;SDS011;52411;52.716;6.696;2023-11-21T11:58:04;14.00;;;8.88;;
65691;SDS011;52411;52.716;6.696;2023-11-21T12:00:34;15.18;;;9.23;;
65691;SDS011;52411;52.716;6.696;2023-11-21T12:05:29;16.45;;;9.02;;
65691;SDS011;52411;52.716;6.696;2023-11-21T12:08:04;15.35;;;9.05;;
65691;SDS011;52411;52.716;6.696;2023-11-21T12:10:35;14.48;;;8.80;;
65691;SDS011;52411;52.716;6.696;2023-11-21T12:13:10;14.10;;;8.10;;
65691;SDS011;52411;52.716;6.696;2023-11-21T12:15:39;14.25;;;8.13;;
65691;SDS011;52411;52.716;6.696;2023-11-21T12:18:06;12.02;;;7.40;;
65691;SDS011;52411;52.716;6.696;2023-11-21T12:20:32;12.25;;;7.47;;
65691;SDS011;52411;52.716;6.696;2023-11-21T12:23:03;11.43;;;7.55;;
65691;SDS011;52411;52.716;6.696;2023-11-21T12:25:30;12.32;;;7.57;;
65691;SDS011;52411;52.716;6.696;2023-11-21T12:27:58;13.77;;;8.07;;
65691;SDS011;52411;52.716;6.696;2023-11-21T12:30:28;15.48;;;8.38;;
65691;SDS011;52411;52.716;6.696;2023-11-21T12:35:24;14.63;;;8.43;;
65691;SDS011;52411;52.716;6.696;2023-11-21T12:37:55;15.13;;;9.15;;
65691;SDS011;52411;52.716;6.696;2023-11-21T12:40:24;16.35;;;9.30;;
65691;SDS011;52411;52.716;6.696;2023-11-21T12:42:57;15.52;;;9.25;;
65691;SDS011;52411;52.716;6.696;2023-11-21T12:47:56;17.17;;;9.82;;
65691;SDS011;52411;52.716;6.696;2023-11-21T12:50:29;14.40;;;8.35;;
65691;SDS011;52411;52.716;6.696;2023-11-21T12:53:02;13.80;;;8.57;;
65691;SDS011;52411;52.716;6.696;2023-11-21T12:55:33;14.35;;;8.55;;
65691;SDS011;52411;52.716;6.696;2023-11-21T12:58:03;18.05;;;9.15;;
65691;SDS011;52411;52.716;6.696;2023-11-21T13:00:38;15.95;;;8.65;;
65691;SDS011;52411;52.716;6.696;2023-11-21T13:03:06;15.00;;;9.13;;
65691;SDS011;52411;52.716;6.696;2023-11-21T13:05:33;16.00;;;8.65;;
65691;SDS011;52411;52.716;6.696;2023-11-21T13:08:04;15.70;;;8.88;;
65691;SDS011;52411;52.716;6.696;2023-11-21T13:10:35;15.73;;;8.70;;
65691;SDS011;52411;52.716;6.696;2023-11-21T13:13:11;15.18;;;8.68;;
65691;SDS011;52411;52.716;6.696;2023-11-21T13:15:49;13.95;;;8.30;;
65691;SDS011;52411;52.716;6.696;2023-11-21T13:18:21;15.13;;;9.05;;
65691;SDS011;52411;52.716;6.696;2023-11-21T13:20:47;14.40;;;8.00;;
65691;SDS011;52411;52.716;6.696;2023-11-21T13:23:13;13.68;;;8.07;;
65691;SDS011;52411;52.716;6.696;2023-11-21T13:25:40;13.50;;;8.68;;
65691;SDS011;52411;52.716;6.696;2023-11-21T13:28:07;14.30;;;8.13;;
65691;SDS011;52411;52.716;6.696;2023-11-21T13:30:34;13.57;;;8.25;;
65691;SDS011;52411;52.716;6.696;2023-11-21T13:33:01;13.57;;;8.35;;
65691;SDS011;52411;52.716;6.696;2023-11-21T13:35:28;12.25;;;7.68;;
65691;SDS011;52411;52.716;6.696;2023-11-21T13:38:06;12.32;;;7.38;;
65691;SDS011;52411;52.716;6.696;2023-11-21T13:40:33;13.10;;;8.00;;
65691;SDS011;52411;52.716;6.696;2023-11-21T13:43:05;13.13;;;8.07;;
65691;SDS011;52411;52.716;6.696;2023-11-21T13:45:30;13.10;;;8.20;;
65691;SDS011;52411;52.716;6.696;2023-11-21T13:47:56;11.65;;;7.53;;
65691;SDS011;52411;52.716;6.696;2023-11-21T13:50:22;13.77;;;8.00;;
65691;SDS011;52411;52.716;6.696;2023-11-21T13:52:50;13.70;;;7.57;;
65691;SDS011;52411;52.716;6.696;2023-11-21T13:55:18;13.65;;;8.23;;
65691;SDS011;52411;52.716;6.696;2023-11-21T13:57:44;14.10;;;7.47;;
65691;SDS011;52411;52.716;6.696;2023-11-21T14:00:12;12.77;;;7.55;;
65691;SDS011;52411;52.716;6.696;2023-11-21T14:02:57;12.65;;;7.90;;
65691;SDS011;52411;52.716;6.696;2023-11-21T14:05:28;14.20;;;8.27;;
65691;SDS011;52411;52.716;6.696;2023-11-21T14:07:57;13.50;;;7.32;;
65691;SDS011;52411;52.716;6.696;2023-11-21T14:10:32;13.68;;;8.35;;
65691;SDS011;52411;52.716;6.696;2023-11-21T14:13:05;13.52;;;7.82;;
65691;SDS011;52411;52.716;6.696;2023-11-21T14:15:31;14.57;;;7.85;;
65691;SDS011;52411;52.716;6.696;2023-11-21T14:17:58;13.07;;;7.82;;
65691;SDS011;52411;52.716;6.696;2023-11-21T14:20:25;13.63;;;7.70;;
65691;SDS011;52411;52.716;6.696;2023-11-21T14:22:50;15.00;;;8.00;;
65691;SDS011;52411;52.716;6.696;2023-11-21T14:25:17;13.63;;;8.40;;
65691;SDS011;52411;52.716;6.696;2023-11-21T14:27:42;16.58;;;9.00;;
65691;SDS011;52411;52.716;6.696;2023-11-21T14:30:08;14.23;;;8.35;;
65691;SDS011;52411;52.716;6.696;2023-11-21T14:32:37;15.98;;;8.55;;
65691;SDS011;52411;52.716;6.696;2023-11-21T14:35:03;15.43;;;8.10;;
65691;SDS011;52411;52.716;6.696;2023-11-21T14:37:29;14.73;;;8.88;;
65691;SDS011;52411;52.716;6.696;2023-11-21T14:39:54;17.20;;;9.13;;
65691;SDS011;52411;52.716;6.696;2023-11-21T14:42:20;14.73;;;9.13;;
65691;SDS011;52411;52.716;6.696;2023-11-21T14:44:50;15.93;;;9.32;;
65691;SDS011;52411;52.716;6.696;2023-11-21T14:47:17;16.33;;;9.15;;
65691;SDS011;52411;52.716;6.696;2023-11-21T14:49:44;18.10;;;8.93;;